sensor_id;sensor_type;location;lat;lon;timestamp;P1;durP1;ratioP1;P2;durP2;ratioP2
77350;SDS011;66420;50.246;14.320;2023-08-24T00:02:03;6.78;;;3.42;;
77350;SDS011;66420;50.246;14.320;2023-08-24T00:04:48;8.05;;;3.33;;
77350;SDS011;66420;50.246;14.320;2023-08-24T00:07:34;6.40;;;3.10;;
77350;SDS011;66420;50.246;14.320;2023-08-24T00:10:19;4.95;;;3.38;;
77350;SDS011;66420;50.246;14.320;2023-08-24T00:13:04;5.03;;;3.92;;
77350;SDS011;66420;50.246;14.320;2023-08-24T00:15:49;7.40;;;3.58;;
77350;SDS011;66420;50.246;14.320;2023-08-24T00:18:33;8.38;;;4.22;;
77350;SDS011;66420;50.246;14.320;2023-08-24T00:21:18;9.02;;;3.80;;
77350;SDS011;66420;50.246;14.320;2023-08-24T00:26:51;6.05;;;3.78;;
77350;SDS011;66420;50.246;14.320;2023-08-24T00:29:36;6.90;;;4.07;;
77350;SDS011;66420;50.246;14.320;2023-08-24T00:32:21;5.28;;;4.00;;
77350;SDS011;66420;50.246;14.320;2023-08-24T00:35:08;5.95;;;3.53;;
77350;SDS011;66420;50.246;14.320;2023-08-24T00:37:55;6.63;;;3.97;;
77350;SDS011;66420;50.246;14.320;2023-08-24T00:40:41;10.45;;;4.50;;
77350;SDS011;66420;50.246;14.320;2023-08-24T00:43:26;7.63;;;4.03;;
77350;SDS011;66420;50.246;14.320;2023-08-24T00:46:12;5.88;;;3.95;;
77350;SDS011;66420;50.246;14.320;2023-08-24T00:48:57;6.53;;;3.67;;
77350;SDS011;66420;50.246;14.320;2023-08-24T00:51:42;4.78;;;3.40;;
77350;SDS011;66420;50.246;14.320;2023-08-24T00:54:27;8.68;;;3.63;;
77350;SDS011;66420;50.246;14.320;2023-08-24T00:57:12;5.93;;;4.05;;
77350;SDS011;66420;50.246;14.320;2023-08-24T00:59:58;6.80;;;3.80;;
77350;SDS011;66420;50.246;14.320;2023-08-24T01:02:44;5.97;;;3.90;;
77350;SDS011;66420;50.246;14.320;2023-08-24T01:05:29;7.15;;;3.97;;
77350;SDS011;66420;50.246;14.320;2023-08-24T01:08:14;8.63;;;3.90;;
77350;SDS011;66420;50.246;14.320;2023-08-24T01:13:52;7.30;;;3.95;;
77350;SDS011;66420;50.246;14.320;2023-08-24T01:16:52;9.93;;;3.20;;
77350;SDS011;66420;50.246;14.320;2023-08-24T01:19:43;8.55;;;3.65;;
77350;SDS011;66420;50.246;14.320;2023-08-24T01:28:19;6.50;;;4.10;;
77350;SDS011;66420;50.246;14.320;2023-08-24T01:31:06;8.15;;;4.30;;
77350;SDS011;66420;50.246;14.320;2023-08-24T01:33:51;6.90;;;4.18;;
77350;SDS011;66420;50.246;14.320;2023-08-24T01:36:36;6.95;;;3.78;;
77350;SDS011;66420;50.246;14.320;2023-08-24T01:39:24;7.28;;;4.20;;
77350;SDS011;66420;50.246;14.320;2023-08-24T01:42:10;7.05;;;3.47;;
77350;SDS011;66420;50.246;14.320;2023-08-24T01:45:03;5.65;;;3.88;;
77350;SDS011;66420;50.246;14.320;2023-08-24T01:47:52;5.82;;;3.90;;
77350;SDS011;66420;50.246;14.320;2023-08-24T01:50:39;8.15;;;4.03;;
77350;SDS011;66420;50.246;14.320;2023-08-24T01:53:25;6.47;;;3.88;;
77350;SDS011;66420;50.246;14.320;2023-08-24T01:56:12;5.68;;;4.00;;
77350;SDS011;66420;50.246;14.320;2023-08-24T01:58:59;6.60;;;4.25;;
77350;SDS011;66420;50.246;14.320;2023-08-24T02:01:43;8.40;;;4.45;;
77350;SDS011;66420;50.246;14.320;2023-08-24T02:04:28;8.95;;;4.40;;
77350;SDS011;66420;50.246;14.320;2023-08-24T02:07:13;5.70;;;3.95;;
77350;SDS011;66420;50.246;14.320;2023-08-24T02:09:58;9.90;;;4.13;;
77350;SDS011;66420;50.246;14.320;2023-08-24T02:12:42;7.25;;;4.32;;
77350;SDS011;66420;50.246;14.320;2023-08-24T02:15:27;5.60;;;4.00;;
77350;SDS011;66420;50.246;14.320;2023-08-24T02:18:12;6.38;;;4.20;;
77350;SDS011;66420;50.246;14.320;2023-08-24T02:20:57;6.57;;;3.70;;
77350;SDS011;66420;50.246;14.320;2023-08-24T02:23:42;9.43;;;4.45;;
77350;SDS011;66420;50.246;14.320;2023-08-24T02:26:27;7.20;;;4.22;;
77350;SDS011;66420;50.246;14.320;2023-08-24T02:29:11;6.22;;;4.60;;
77350;SDS011;66420;50.246;14.320;2023-08-24T02:31:56;7.65;;;3.80;;
77350;SDS011;66420;50.246;14.320;2023-08-24T02:34:41;5.93;;;3.63;;
77350;SDS011;66420;50.246;14.320;2023-08-24T02:37:26;7.18;;;4.03;;
77350;SDS011;66420;50.246;14.320;2023-08-24T02:40:11;5.35;;;3.30;;
77350;SDS011;66420;50.246;14.320;2023-08-24T02:42:56;6.93;;;3.65;;
77350;SDS011;66420;50.246;14.320;2023-08-24T02:45:41;8.52;;;3.90;;
77350;SDS011;66420;50.246;14.320;2023-08-24T02:48:26;7.22;;;3.88;;
77350;SDS011;66420;50.246;14.320;2023-08-24T02:51:10;6.65;;;3.83;;
77350;SDS011;66420;50.246;14.320;2023-08-24T02:53:56;6.20;;;3.90;;
77350;SDS011;66420;50.246;14.320;2023-08-24T02:56:41;7.38;;;3.67;;
77350;SDS011;66420;50.246;14.320;2023-08-24T02:59:26;7.10;;;3.80;;
77350;SDS011;66420;50.246;14.320;2023-08-24T03:02:11;5.75;;;3.60;;
77350;SDS011;66420;50.246;14.320;2023-08-24T03:04:56;8.88;;;4.28;;
77350;SDS011;66420;50.246;14.320;2023-08-24T03:07:41;10.65;;;4.32;;
77350;SDS011;66420;50.246;14.320;2023-08-24T03:10:26;5.85;;;3.67;;
77350;SDS011;66420;50.246;14.320;2023-08-24T03:13:10;7.88;;;4.20;;
77350;SDS011;66420;50.246;14.320;2023-08-24T03:15:55;5.93;;;3.65;;
77350;SDS011;66420;50.246;14.320;2023-08-24T03:18:40;9.35;;;4.30;;
77350;SDS011;66420;50.246;14.320;2023-08-24T03:21:26;7.32;;;4.15;;
77350;SDS011;66420;50.246;14.320;2023-08-24T03:24:11;7.65;;;4.68;;
77350;SDS011;66420;50.246;14.320;2023-08-24T03:26:55;7.53;;;4.65;;
77350;SDS011;66420;50.246;14.320;2023-08-24T03:29:40;7.03;;;4.28;;
77350;SDS011;66420;50.246;14.320;2023-08-24T03:32:26;10.25;;;4.50;;
77350;SDS011;66420;50.246;14.320;2023-08-24T03:35:10;7.90;;;4.38;;
77350;SDS011;66420;50.246;14.320;2023-08-24T03:37:56;8.57;;;4.22;;
77350;SDS011;66420;50.246;14.320;2023-08-24T03:40:41;6.97;;;4.28;;
77350;SDS011;66420;50.246;14.320;2023-08-24T03:43:26;8.73;;;4.53;;
77350;SDS011;66420;50.246;14.320;2023-08-24T03:46:11;10.10;;;4.72;;
77350;SDS011;66420;50.246;14.320;2023-08-24T03:48:55;7.80;;;4.40;;
77350;SDS011;66420;50.246;14.320;2023-08-24T03:51:40;8.35;;;4.55;;
77350;SDS011;66420;50.246;14.320;2023-08-24T03:54:25;6.60;;;4.80;;
77350;SDS011;66420;50.246;14.320;2023-08-24T03:57:10;9.65;;;4.75;;
77350;SDS011;66420;50.246;14.320;2023-08-24T03:59:55;7.10;;;4.65;;
77350;SDS011;66420;50.246;14.320;2023-08-24T04:02:40;10.10;;;5.00;;
77350;SDS011;66420;50.246;14.320;2023-08-24T04:05:25;8.63;;;4.43;;
77350;SDS011;66420;50.246;14.320;2023-08-24T04:08:10;7.65;;;4.82;;
77350;SDS011;66420;50.246;14.320;2023-08-24T04:10:55;8.13;;;5.05;;
77350;SDS011;66420;50.246;14.320;2023-08-24T04:13:39;8.68;;;5.13;;
77350;SDS011;66420;50.246;14.320;2023-08-24T04:16:24;7.63;;;4.85;;
77350;SDS011;66420;50.246;14.320;2023-08-24T04:19:09;9.10;;;4.82;;
77350;SDS011;66420;50.246;14.320;2023-08-24T04:21:54;10.20;;;4.80;;
77350;SDS011;66420;50.246;14.320;2023-08-24T04:24:39;7.85;;;4.50;;
77350;SDS011;66420;50.246;14.320;2023-08-24T04:27:24;6.93;;;4.40;;
77350;SDS011;66420;50.246;14.320;2023-08-24T04:30:09;8.02;;;4.80;;
77350;SDS011;66420;50.246;14.320;2023-08-24T04:32:56;6.47;;;4.68;;
77350;SDS011;66420;50.246;14.320;2023-08-24T04:35:41;9.18;;;4.53;;
77350;SDS011;66420;50.246;14.320;2023-08-24T04:38:26;7.30;;;4.78;;
77350;SDS011;66420;50.246;14.320;2023-08-24T04:41:10;7.95;;;4.93;;
77350;SDS011;66420;50.246;14.320;2023-08-24T04:43:56;10.25;;;4.70;;
77350;SDS011;66420;50.246;14.320;2023-08-24T04:46:41;6.65;;;4.55;;
77350;SDS011;66420;50.246;14.320;2023-08-24T04:49:25;9.45;;;5.20;;
77350;SDS011;66420;50.246;14.320;2023-08-24T04:52:10;6.57;;;4.60;;
77350;SDS011;66420;50.246;14.320;2023-08-24T04:54:55;7.13;;;4.45;;
77350;SDS011;66420;50.246;14.320;2023-08-24T04:57:40;8.32;;;4.55;;
77350;SDS011;66420;50.246;14.320;2023-08-24T05:00:26;7.57;;;4.75;;
77350;SDS011;66420;50.246;14.320;2023-08-24T05:03:11;7.50;;;4.47;;
77350;SDS011;66420;50.246;14.320;2023-08-24T05:05:56;9.75;;;4.82;;
77350;SDS011;66420;50.246;14.320;2023-08-24T05:08:41;8.32;;;5.03;;
77350;SDS011;66420;50.246;14.320;2023-08-24T05:11:27;6.68;;;4.43;;
77350;SDS011;66420;50.246;14.320;2023-08-24T05:14:13;9.57;;;4.97;;
77350;SDS011;66420;50.246;14.320;2023-08-24T05:16:58;6.53;;;4.63;;
77350;SDS011;66420;50.246;14.320;2023-08-24T05:19:43;6.78;;;4.80;;
77350;SDS011;66420;50.246;14.320;2023-08-24T05:22:28;10.80;;;5.15;;
77350;SDS011;66420;50.246;14.320;2023-08-24T05:25:13;9.27;;;5.03;;
77350;SDS011;66420;50.246;14.320;2023-08-24T05:28:00;8.07;;;5.13;;
77350;SDS011;66420;50.246;14.320;2023-08-24T05:30:45;9.50;;;5.18;;
77350;SDS011;66420;50.246;14.320;2023-08-24T05:33:30;9.30;;;5.85;;
77350;SDS011;66420;50.246;14.320;2023-08-24T05:36:17;8.57;;;4.70;;
77350;SDS011;66420;50.246;14.320;2023-08-24T05:39:02;6.22;;;4.90;;
77350;SDS011;66420;50.246;14.320;2023-08-24T05:41:50;6.93;;;4.40;;
77350;SDS011;66420;50.246;14.320;2023-08-24T05:44:36;7.28;;;4.95;;
77350;SDS011;66420;50.246;14.320;2023-08-24T05:47:20;8.95;;;5.07;;
77350;SDS011;66420;50.246;14.320;2023-08-24T05:50:05;7.28;;;4.72;;
77350;SDS011;66420;50.246;14.320;2023-08-24T05:52:51;8.63;;;5.00;;
77350;SDS011;66420;50.246;14.320;2023-08-24T05:55:36;7.22;;;3.92;;
77350;SDS011;66420;50.246;14.320;2023-08-24T05:58:21;6.57;;;4.40;;
77350;SDS011;66420;50.246;14.320;2023-08-24T06:01:06;6.60;;;4.32;;
77350;SDS011;66420;50.246;14.320;2023-08-24T06:03:51;7.85;;;4.68;;
77350;SDS011;66420;50.246;14.320;2023-08-24T06:06:36;5.88;;;3.63;;
77350;SDS011;66420;50.246;14.320;2023-08-24T06:09:21;8.90;;;4.65;;
77350;SDS011;66420;50.246;14.320;2023-08-24T06:12:06;9.45;;;5.25;;
77350;SDS011;66420;50.246;14.320;2023-08-24T06:14:51;6.35;;;3.45;;
77350;SDS011;66420;50.246;14.320;2023-08-24T06:17:36;9.25;;;4.28;;
77350;SDS011;66420;50.246;14.320;2023-08-24T06:20:20;9.82;;;4.60;;
77350;SDS011;66420;50.246;14.320;2023-08-24T06:23:05;9.10;;;4.45;;
77350;SDS011;66420;50.246;14.320;2023-08-24T06:25:51;10.68;;;4.80;;
77350;SDS011;66420;50.246;14.320;2023-08-24T06:28:37;10.30;;;3.92;;
77350;SDS011;66420;50.246;14.320;2023-08-24T06:31:22;6.30;;;3.78;;
77350;SDS011;66420;50.246;14.320;2023-08-24T06:34:06;8.30;;;4.28;;
77350;SDS011;66420;50.246;14.320;2023-08-24T06:36:52;8.82;;;4.50;;
77350;SDS011;66420;50.246;14.320;2023-08-24T06:39:37;9.60;;;4.22;;
77350;SDS011;66420;50.246;14.320;2023-08-24T06:42:22;8.00;;;4.30;;
77350;SDS011;66420;50.246;14.320;2023-08-24T06:45:07;12.73;;;4.82;;
77350;SDS011;66420;50.246;14.320;2023-08-24T06:47:54;10.98;;;4.30;;
77350;SDS011;66420;50.246;14.320;2023-08-24T06:50:38;6.95;;;3.75;;
77350;SDS011;66420;50.246;14.320;2023-08-24T06:53:23;7.57;;;4.43;;
77350;SDS011;66420;50.246;14.320;2023-08-24T06:56:08;11.77;;;4.78;;
77350;SDS011;66420;50.246;14.320;2023-08-24T06:58:53;8.50;;;4.60;;
77350;SDS011;66420;50.246;14.320;2023-08-24T07:01:38;11.25;;;5.20;;
77350;SDS011;66420;50.246;14.320;2023-08-24T07:04:25;10.20;;;5.00;;
77350;SDS011;66420;50.246;14.320;2023-08-24T07:07:11;9.07;;;4.78;;
77350;SDS011;66420;50.246;14.320;2023-08-24T07:09:56;8.40;;;4.68;;
77350;SDS011;66420;50.246;14.320;2023-08-24T07:12:41;13.43;;;4.95;;
77350;SDS011;66420;50.246;14.320;2023-08-24T07:15:26;11.52;;;5.10;;
77350;SDS011;66420;50.246;14.320;2023-08-24T07:18:11;11.63;;;4.93;;
77350;SDS011;66420;50.246;14.320;2023-08-24T07:20:56;8.18;;;4.80;;
77350;SDS011;66420;50.246;14.320;2023-08-24T07:23:41;12.63;;;5.60;;
77350;SDS011;66420;50.246;14.320;2023-08-24T07:26:26;9.23;;;5.55;;
77350;SDS011;66420;50.246;14.320;2023-08-24T07:29:11;8.48;;;4.38;;
77350;SDS011;66420;50.246;14.320;2023-08-24T07:31:56;12.07;;;4.72;;
77350;SDS011;66420;50.246;14.320;2023-08-24T07:34:42;6.72;;;4.72;;
77350;SDS011;66420;50.246;14.320;2023-08-24T07:37:27;9.55;;;3.80;;
77350;SDS011;66420;50.246;14.320;2023-08-24T07:40:12;6.45;;;4.00;;
77350;SDS011;66420;50.246;14.320;2023-08-24T07:42:57;7.90;;;4.20;;
77350;SDS011;66420;50.246;14.320;2023-08-24T07:45:42;6.13;;;4.15;;
77350;SDS011;66420;50.246;14.320;2023-08-24T07:48:26;9.32;;;4.47;;
77350;SDS011;66420;50.246;14.320;2023-08-24T07:51:11;10.48;;;4.55;;
77350;SDS011;66420;50.246;14.320;2023-08-24T07:53:56;8.52;;;4.65;;
77350;SDS011;66420;50.246;14.320;2023-08-24T07:56:41;7.80;;;4.03;;
77350;SDS011;66420;50.246;14.320;2023-08-24T07:59:27;8.57;;;4.70;;
77350;SDS011;66420;50.246;14.320;2023-08-24T08:02:12;9.25;;;4.35;;
77350;SDS011;66420;50.246;14.320;2023-08-24T08:04:59;6.20;;;4.47;;
77350;SDS011;66420;50.246;14.320;2023-08-24T08:07:44;10.48;;;3.95;;
77350;SDS011;66420;50.246;14.320;2023-08-24T08:10:29;11.25;;;4.60;;
77350;SDS011;66420;50.246;14.320;2023-08-24T08:13:15;9.00;;;4.25;;
77350;SDS011;66420;50.246;14.320;2023-08-24T08:16:00;10.15;;;4.00;;
77350;SDS011;66420;50.246;14.320;2023-08-24T08:18:47;8.40;;;3.97;;
77350;SDS011;66420;50.246;14.320;2023-08-24T08:21:32;9.15;;;3.40;;
77350;SDS011;66420;50.246;14.320;2023-08-24T08:24:16;7.90;;;3.35;;
77350;SDS011;66420;50.246;14.320;2023-08-24T08:27:01;9.75;;;3.78;;
77350;SDS011;66420;50.246;14.320;2023-08-24T08:29:46;11.02;;;3.75;;
77350;SDS011;66420;50.246;14.320;2023-08-24T08:32:31;11.88;;;3.53;;
77350;SDS011;66420;50.246;14.320;2023-08-24T08:35:16;7.32;;;3.35;;
77350;SDS011;66420;50.246;14.320;2023-08-24T08:38:01;7.10;;;2.97;;
77350;SDS011;66420;50.246;14.320;2023-08-24T08:40:46;10.85;;;3.72;;
77350;SDS011;66420;50.246;14.320;2023-08-24T08:43:33;5.38;;;3.13;;
77350;SDS011;66420;50.246;14.320;2023-08-24T08:46:18;6.32;;;3.30;;
77350;SDS011;66420;50.246;14.320;2023-08-24T08:49:03;7.80;;;3.30;;
77350;SDS011;66420;50.246;14.320;2023-08-24T08:51:50;8.27;;;3.30;;
77350;SDS011;66420;50.246;14.320;2023-08-24T08:54:36;6.88;;;3.33;;
77350;SDS011;66420;50.246;14.320;2023-08-24T08:57:21;5.80;;;3.28;;
77350;SDS011;66420;50.246;14.320;2023-08-24T09:00:07;6.35;;;3.30;;
77350;SDS011;66420;50.246;14.320;2023-08-24T09:02:59;6.15;;;3.00;;
77350;SDS011;66420;50.246;14.320;2023-08-24T09:05:45;5.57;;;2.88;;
77350;SDS011;66420;50.246;14.320;2023-08-24T09:08:32;4.53;;;2.72;;
77350;SDS011;66420;50.246;14.320;2023-08-24T09:11:17;7.93;;;3.10;;
77350;SDS011;66420;50.246;14.320;2023-08-24T09:14:02;8.63;;;3.10;;
77350;SDS011;66420;50.246;14.320;2023-08-24T09:16:47;8.25;;;3.20;;
77350;SDS011;66420;50.246;14.320;2023-08-24T09:19:32;7.88;;;3.58;;
77350;SDS011;66420;50.246;14.320;2023-08-24T09:22:19;5.78;;;3.20;;
77350;SDS011;66420;50.246;14.320;2023-08-24T09:25:05;9.25;;;3.13;;
77350;SDS011;66420;50.246;14.320;2023-08-24T09:27:59;8.88;;;2.92;;
77350;SDS011;66420;50.246;14.320;2023-08-24T09:30:44;6.50;;;3.33;;
77350;SDS011;66420;50.246;14.320;2023-08-24T09:33:29;10.20;;;3.40;;
77350;SDS011;66420;50.246;14.320;2023-08-24T09:36:15;8.07;;;3.03;;
77350;SDS011;66420;50.246;14.320;2023-08-24T09:39:01;6.88;;;3.17;;
77350;SDS011;66420;50.246;14.320;2023-08-24T09:41:51;10.82;;;2.92;;
77350;SDS011;66420;50.246;14.320;2023-08-24T09:44:36;6.68;;;2.83;;
77350;SDS011;66420;50.246;14.320;2023-08-24T09:47:20;8.88;;;2.72;;
77350;SDS011;66420;50.246;14.320;2023-08-24T09:50:05;5.50;;;2.80;;
77350;SDS011;66420;50.246;14.320;2023-08-24T09:52:50;4.32;;;2.67;;
77350;SDS011;66420;50.246;14.320;2023-08-24T09:55:39;7.55;;;2.42;;
77350;SDS011;66420;50.246;14.320;2023-08-24T09:58:27;4.00;;;2.00;;
77350;SDS011;66420;50.246;14.320;2023-08-24T10:01:12;6.63;;;2.60;;
77350;SDS011;66420;50.246;14.320;2023-08-24T10:03:59;3.25;;;2.00;;
77350;SDS011;66420;50.246;14.320;2023-08-24T10:06:46;3.65;;;1.88;;
77350;SDS011;66420;50.246;14.320;2023-08-24T10:09:49;5.32;;;2.35;;
77350;SDS011;66420;50.246;14.320;2023-08-24T10:12:36;9.00;;;2.40;;
77350;SDS011;66420;50.246;14.320;2023-08-24T10:15:26;5.47;;;2.30;;
77350;SDS011;66420;50.246;14.320;2023-08-24T10:18:12;5.03;;;2.30;;
77350;SDS011;66420;50.246;14.320;2023-08-24T10:23:45;4.97;;;2.47;;
77350;SDS011;66420;50.246;14.320;2023-08-24T10:26:30;4.82;;;2.22;;
77350;SDS011;66420;50.246;14.320;2023-08-24T10:29:18;9.55;;;2.40;;
77350;SDS011;66420;50.246;14.320;2023-08-24T10:32:05;7.32;;;2.40;;
77350;SDS011;66420;50.246;14.320;2023-08-24T10:34:51;13.88;;;2.45;;
77350;SDS011;66420;50.246;14.320;2023-08-24T10:37:36;5.55;;;2.33;;
77350;SDS011;66420;50.246;14.320;2023-08-24T10:40:36;4.40;;;2.45;;
77350;SDS011;66420;50.246;14.320;2023-08-24T10:43:28;4.00;;;2.53;;
77350;SDS011;66420;50.246;14.320;2023-08-24T10:46:13;4.13;;;2.65;;
77350;SDS011;66420;50.246;14.320;2023-08-24T10:49:05;6.20;;;2.65;;
77350;SDS011;66420;50.246;14.320;2023-08-24T10:51:51;8.45;;;2.78;;
77350;SDS011;66420;50.246;14.320;2023-08-24T10:54:36;7.25;;;2.60;;
77350;SDS011;66420;50.246;14.320;2023-08-24T10:57:31;6.70;;;2.40;;
77350;SDS011;66420;50.246;14.320;2023-08-24T11:00:20;7.18;;;2.67;;
77350;SDS011;66420;50.246;14.320;2023-08-24T11:03:07;4.88;;;2.55;;
77350;SDS011;66420;50.246;14.320;2023-08-24T11:05:53;7.47;;;2.60;;
77350;SDS011;66420;50.246;14.320;2023-08-24T11:08:44;5.72;;;2.70;;
77350;SDS011;66420;50.246;14.320;2023-08-24T11:11:29;9.60;;;2.90;;
77350;SDS011;66420;50.246;14.320;2023-08-24T11:14:18;7.35;;;2.80;;
77350;SDS011;66420;50.246;14.320;2023-08-24T11:17:19;7.97;;;2.45;;
77350;SDS011;66420;50.246;14.320;2023-08-24T11:20:05;9.77;;;2.67;;
77350;SDS011;66420;50.246;14.320;2023-08-24T11:22:53;6.18;;;3.03;;
77350;SDS011;66420;50.246;14.320;2023-08-24T11:25:40;6.38;;;2.78;;
77350;SDS011;66420;50.246;14.320;2023-08-24T11:28:25;7.55;;;2.97;;
77350;SDS011;66420;50.246;14.320;2023-08-24T11:31:12;5.45;;;3.10;;
77350;SDS011;66420;50.246;14.320;2023-08-24T11:33:57;7.10;;;2.97;;
77350;SDS011;66420;50.246;14.320;2023-08-24T11:36:48;5.22;;;2.60;;
77350;SDS011;66420;50.246;14.320;2023-08-24T11:39:33;6.85;;;2.65;;
77350;SDS011;66420;50.246;14.320;2023-08-24T11:42:18;8.30;;;2.85;;
77350;SDS011;66420;50.246;14.320;2023-08-24T11:45:02;5.38;;;2.88;;
77350;SDS011;66420;50.246;14.320;2023-08-24T11:50:42;7.32;;;2.88;;
77350;SDS011;66420;50.246;14.320;2023-08-24T11:53:27;6.70;;;2.80;;
77350;SDS011;66420;50.246;14.320;2023-08-24T11:56:15;7.63;;;3.00;;
77350;SDS011;66420;50.246;14.320;2023-08-24T11:59:03;4.97;;;2.90;;
77350;SDS011;66420;50.246;14.320;2023-08-24T12:01:48;7.00;;;3.10;;
77350;SDS011;66420;50.246;14.320;2023-08-24T12:04:40;6.63;;;2.97;;
77350;SDS011;66420;50.246;14.320;2023-08-24T12:07:27;5.43;;;2.80;;
77350;SDS011;66420;50.246;14.320;2023-08-24T12:10:12;8.02;;;3.00;;
77350;SDS011;66420;50.246;14.320;2023-08-24T12:13:00;10.88;;;2.88;;
77350;SDS011;66420;50.246;14.320;2023-08-24T12:15:52;6.93;;;3.15;;
77350;SDS011;66420;50.246;14.320;2023-08-24T12:18:46;7.25;;;2.92;;
77350;SDS011;66420;50.246;14.320;2023-08-24T12:21:35;8.57;;;2.90;;
77350;SDS011;66420;50.246;14.320;2023-08-24T12:24:20;6.15;;;2.92;;
77350;SDS011;66420;50.246;14.320;2023-08-24T12:27:06;7.30;;;3.40;;
77350;SDS011;66420;50.246;14.320;2023-08-24T12:29:51;6.07;;;2.97;;
77350;SDS011;66420;50.246;14.320;2023-08-24T12:32:42;7.60;;;2.70;;
77350;SDS011;66420;50.246;14.320;2023-08-24T12:35:28;6.63;;;2.90;;
77350;SDS011;66420;50.246;14.320;2023-08-24T12:38:13;6.72;;;2.75;;
77350;SDS011;66420;50.246;14.320;2023-08-24T12:40:57;8.02;;;3.20;;
77350;SDS011;66420;50.246;14.320;2023-08-24T12:43:42;7.10;;;3.08;;
77350;SDS011;66420;50.246;14.320;2023-08-24T12:46:27;7.97;;;3.10;;
77350;SDS011;66420;50.246;14.320;2023-08-24T12:49:12;5.13;;;2.95;;
77350;SDS011;66420;50.246;14.320;2023-08-24T12:51:56;6.35;;;2.88;;
77350;SDS011;66420;50.246;14.320;2023-08-24T12:54:42;5.68;;;2.80;;
77350;SDS011;66420;50.246;14.320;2023-08-24T12:57:27;7.88;;;3.10;;
77350;SDS011;66420;50.246;14.320;2023-08-24T13:00:13;7.47;;;3.10;;
77350;SDS011;66420;50.246;14.320;2023-08-24T13:02:59;9.02;;;3.40;;
77350;SDS011;66420;50.246;14.320;2023-08-24T13:05:44;7.30;;;3.05;;
77350;SDS011;66420;50.246;14.320;2023-08-24T13:08:29;6.45;;;3.08;;
77350;SDS011;66420;50.246;14.320;2023-08-24T13:11:15;6.78;;;3.00;;
77350;SDS011;66420;50.246;14.320;2023-08-24T13:13:59;8.82;;;3.15;;
77350;SDS011;66420;50.246;14.320;2023-08-24T13:16:44;7.72;;;2.97;;
77350;SDS011;66420;50.246;14.320;2023-08-24T13:19:30;7.88;;;2.75;;
77350;SDS011;66420;50.246;14.320;2023-08-24T13:22:15;6.50;;;2.95;;
77350;SDS011;66420;50.246;14.320;2023-08-24T13:24:59;8.55;;;3.03;;
77350;SDS011;66420;50.246;14.320;2023-08-24T13:27:44;7.10;;;2.78;;
77350;SDS011;66420;50.246;14.320;2023-08-24T13:30:28;11.27;;;2.92;;
77350;SDS011;66420;50.246;14.320;2023-08-24T13:33:13;9.60;;;2.85;;
77350;SDS011;66420;50.246;14.320;2023-08-24T13:35:59;8.15;;;2.78;;
77350;SDS011;66420;50.246;14.320;2023-08-24T13:38:46;8.20;;;3.00;;
77350;SDS011;66420;50.246;14.320;2023-08-24T13:41:31;10.48;;;2.92;;
77350;SDS011;66420;50.246;14.320;2023-08-24T13:44:16;6.30;;;2.67;;
77350;SDS011;66420;50.246;14.320;2023-08-24T13:47:00;8.60;;;2.72;;
77350;SDS011;66420;50.246;14.320;2023-08-24T13:49:45;9.05;;;3.05;;
77350;SDS011;66420;50.246;14.320;2023-08-24T13:52:30;11.30;;;8.52;;
77350;SDS011;66420;50.246;14.320;2023-08-24T13:55:15;5.82;;;3.13;;
77350;SDS011;66420;50.246;14.320;2023-08-24T13:58:00;8.15;;;2.90;;
77350;SDS011;66420;50.246;14.320;2023-08-24T14:00:46;6.35;;;2.72;;
77350;SDS011;66420;50.246;14.320;2023-08-24T14:03:31;7.00;;;2.70;;
77350;SDS011;66420;50.246;14.320;2023-08-24T14:06:16;8.30;;;3.13;;
77350;SDS011;66420;50.246;14.320;2023-08-24T14:09:00;6.18;;;2.55;;
77350;SDS011;66420;50.246;14.320;2023-08-24T14:11:45;8.57;;;3.10;;
77350;SDS011;66420;50.246;14.320;2023-08-24T14:14:31;7.28;;;2.65;;
77350;SDS011;66420;50.246;14.320;2023-08-24T14:17:16;7.70;;;3.20;;
77350;SDS011;66420;50.246;14.320;2023-08-24T14:20:00;10.02;;;3.00;;
77350;SDS011;66420;50.246;14.320;2023-08-24T14:22:48;7.10;;;2.72;;
77350;SDS011;66420;50.246;14.320;2023-08-24T14:25:33;6.75;;;2.80;;
77350;SDS011;66420;50.246;14.320;2023-08-24T14:28:18;9.45;;;2.60;;
77350;SDS011;66420;50.246;14.320;2023-08-24T14:31:05;10.05;;;2.65;;
77350;SDS011;66420;50.246;14.320;2023-08-24T14:33:50;5.90;;;3.17;;
77350;SDS011;66420;50.246;14.320;2023-08-24T14:36:35;9.45;;;2.85;;
77350;SDS011;66420;50.246;14.320;2023-08-24T14:39:21;5.95;;;2.80;;
77350;SDS011;66420;50.246;14.320;2023-08-24T14:42:05;5.97;;;2.70;;
77350;SDS011;66420;50.246;14.320;2023-08-24T14:44:50;8.38;;;3.13;;
77350;SDS011;66420;50.246;14.320;2023-08-24T14:47:34;6.85;;;2.75;;
77350;SDS011;66420;50.246;14.320;2023-08-24T14:50:19;9.07;;;2.70;;
77350;SDS011;66420;50.246;14.320;2023-08-24T14:53:04;7.35;;;2.70;;
77350;SDS011;66420;50.246;14.320;2023-08-24T14:55:49;6.93;;;2.67;;
77350;SDS011;66420;50.246;14.320;2023-08-24T14:58:33;6.05;;;2.70;;
77350;SDS011;66420;50.246;14.320;2023-08-24T15:01:18;9.38;;;2.90;;
77350;SDS011;66420;50.246;14.320;2023-08-24T15:04:02;5.57;;;2.58;;
77350;SDS011;66420;50.246;14.320;2023-08-24T15:06:47;8.60;;;2.90;;
77350;SDS011;66420;50.246;14.320;2023-08-24T15:09:32;5.20;;;2.78;;
77350;SDS011;66420;50.246;14.320;2023-08-24T15:12:17;6.70;;;2.88;;
77350;SDS011;66420;50.246;14.320;2023-08-24T15:15:02;6.63;;;2.80;;
77350;SDS011;66420;50.246;14.320;2023-08-24T15:17:47;7.25;;;3.05;;
77350;SDS011;66420;50.246;14.320;2023-08-24T15:20:32;8.05;;;2.55;;
77350;SDS011;66420;50.246;14.320;2023-08-24T15:23:24;4.28;;;2.45;;
77350;SDS011;66420;50.246;14.320;2023-08-24T15:26:10;5.07;;;2.55;;
77350;SDS011;66420;50.246;14.320;2023-08-24T15:29:12;6.90;;;2.85;;
77350;SDS011;66420;50.246;14.320;2023-08-24T15:32:02;7.20;;;2.65;;
77350;SDS011;66420;50.246;14.320;2023-08-24T15:34:47;7.65;;;2.70;;
77350;SDS011;66420;50.246;14.320;2023-08-24T15:37:32;6.43;;;2.95;;
77350;SDS011;66420;50.246;14.320;2023-08-24T15:40:17;6.10;;;2.72;;
77350;SDS011;66420;50.246;14.320;2023-08-24T15:43:02;6.63;;;2.90;;
77350;SDS011;66420;50.246;14.320;2023-08-24T15:45:51;7.68;;;2.80;;
77350;SDS011;66420;50.246;14.320;2023-08-24T15:51:22;4.40;;;2.45;;
77350;SDS011;66420;50.246;14.320;2023-08-24T15:54:07;7.82;;;2.90;;
77350;SDS011;66420;50.246;14.320;2023-08-24T15:56:52;9.15;;;2.78;;
77350;SDS011;66420;50.246;14.320;2023-08-24T15:59:38;5.03;;;2.53;;
77350;SDS011;66420;50.246;14.320;2023-08-24T16:02:22;7.10;;;2.55;;
77350;SDS011;66420;50.246;14.320;2023-08-24T16:05:07;8.13;;;3.00;;
77350;SDS011;66420;50.246;14.320;2023-08-24T16:07:52;7.10;;;2.78;;
77350;SDS011;66420;50.246;14.320;2023-08-24T16:10:37;4.45;;;2.42;;
77350;SDS011;66420;50.246;14.320;2023-08-24T16:13:22;7.22;;;2.95;;
77350;SDS011;66420;50.246;14.320;2023-08-24T16:16:08;7.80;;;3.00;;
77350;SDS011;66420;50.246;14.320;2023-08-24T16:18:53;7.35;;;2.90;;
77350;SDS011;66420;50.246;14.320;2023-08-24T16:21:39;7.53;;;3.08;;
77350;SDS011;66420;50.246;14.320;2023-08-24T16:24:24;5.82;;;3.05;;
77350;SDS011;66420;50.246;14.320;2023-08-24T16:27:08;5.63;;;2.83;;
77350;SDS011;66420;50.246;14.320;2023-08-24T16:29:53;7.75;;;3.03;;
77350;SDS011;66420;50.246;14.320;2023-08-24T16:32:39;5.57;;;2.58;;
77350;SDS011;66420;50.246;14.320;2023-08-24T16:35:24;8.20;;;2.70;;
77350;SDS011;66420;50.246;14.320;2023-08-24T16:38:09;6.65;;;3.20;;
77350;SDS011;66420;50.246;14.320;2023-08-24T16:40:54;7.53;;;2.75;;
77350;SDS011;66420;50.246;14.320;2023-08-24T16:43:39;5.47;;;2.95;;